sensor_id;sensor_type;location;lat;lon;timestamp;pressure;altitude;pressure_sealevel;temperature;humidity
45793;BME280;31495;42.740;22.908;2023-04-26T00:00:17;92196.22;;;8.49;85.91
45793;BME280;31495;42.740;22.908;2023-04-26T00:01:17;92183.16;;;8.32;85.78
45793;BME280;31495;42.740;22.908;2023-04-26T00:02:16;92162.59;;;8.14;85.67
45793;BME280;31495;42.740;22.908;2023-04-26T00:03:16;92171.72;;;8.28;85.41
45793;BME280;31495;42.740;22.908;2023-04-26T00:04:16;92185.19;;;8.42;85.18
45793;BME280;31495;42.740;22.908;2023-04-26T00:05:15;92185.56;;;8.45;85.12
45793;BME280;31495;42.740;22.908;2023-04-26T00:06:16;92189.81;;;8.40;85.16
45793;BME280;31495;42.740;22.908;2023-04-26T00:07:17;92145.44;;;8.07;85.04
45793;BME280;31495;42.740;22.908;2023-04-26T00:08:16;92133.06;;;7.98;85.20
45793;BME280;31495;42.740;22.908;2023-04-26T00:09:15;92183.38;;;8.31;85.35
45793;BME280;31495;42.740;22.908;2023-04-26T00:10:17;92157.66;;;8.12;85.26
45793;BME280;31495;42.740;22.908;2023-04-26T00:11:17;92142.72;;;8.02;85.02
45793;BME280;31495;42.740;22.908;2023-04-26T00:12:16;92188.28;;;8.20;85.03
45793;BME280;31495;42.740;22.908;2023-04-26T00:13:16;92175.81;;;8.17;84.83
45793;BME280;31495;42.740;22.908;2023-04-26T00:14:15;92161.09;;;8.06;84.96
45793;BME280;31495;42.740;22.908;2023-04-26T00:15:15;92177.63;;;8.17;84.91
45793;BME280;31495;42.740;22.908;2023-04-26T00:16:15;92171.09;;;8.14;85.06
45793;BME280;31495;42.740;22.908;2023-04-26T00:17:15;92172.56;;;8.10;85.48
45793;BME280;31495;42.740;22.908;2023-04-26T00:18:14;92128.88;;;7.85;85.67
45793;BME280;31495;42.740;22.908;2023-04-26T00:19:13;92162.31;;;8.03;85.67
45793;BME280;31495;42.740;22.908;2023-04-26T00:20:14;92161.09;;;8.06;85.85
45793;BME280;31495;42.740;22.908;2023-04-26T00:21:14;92143.06;;;8.06;85.91
45793;BME280;31495;42.740;22.908;2023-04-26T00:22:13;92155.63;;;8.14;86.12
45793;BME280;31495;42.740;22.908;2023-04-26T00:23:13;92169.59;;;8.25;86.01
45793;BME280;31495;42.740;22.908;2023-04-26T00:24:13;92168.00;;;8.24;86.14
45793;BME280;31495;42.740;22.908;2023-04-26T00:25:12;92173.72;;;8.26;86.33
45793;BME280;31495;42.740;22.908;2023-04-26T00:26:11;92171.94;;;8.26;86.33
45793;BME280;31495;42.740;22.908;2023-04-26T00:27:11;92167.91;;;8.31;85.80
45793;BME280;31495;42.740;22.908;2023-04-26T00:28:10;92152.75;;;8.22;85.52
45793;BME280;31495;42.740;22.908;2023-04-26T00:29:10;92134.69;;;8.10;85.24
45793;BME280;31495;42.740;22.908;2023-04-26T00:30:09;92114.03;;;7.99;84.97
45793;BME280;31495;42.740;22.908;2023-04-26T00:31:18;92149.88;;;8.31;85.08
45793;BME280;31495;42.740;22.908;2023-04-26T00:32:18;92138.50;;;8.20;84.85
45793;BME280;31495;42.740;22.908;2023-04-26T00:33:17;92164.81;;;8.40;84.68
45793;BME280;31495;42.740;22.908;2023-04-26T00:34:17;92148.28;;;8.29;84.92
45793;BME280;31495;42.740;22.908;2023-04-26T00:35:16;92140.34;;;8.31;84.62
45793;BME280;31495;42.740;22.908;2023-04-26T00:36:15;92147.84;;;8.33;84.62
45793;BME280;31495;42.740;22.908;2023-04-26T00:37:17;92161.88;;;8.37;84.70
45793;BME280;31495;42.740;22.908;2023-04-26T00:38:17;92164.03;;;8.40;84.78
45793;BME280;31495;42.740;22.908;2023-04-26T00:39:16;92096.00;;;7.99;84.52
45793;BME280;31495;42.740;22.908;2023-04-26T00:40:16;92161.44;;;8.40;84.56
45793;BME280;31495;42.740;22.908;2023-04-26T00:41:15;92171.16;;;8.38;84.29
45793;BME280;31495;42.740;22.908;2023-04-26T00:42:15;92157.38;;;8.32;84.25
45793;BME280;31495;42.740;22.908;2023-04-26T00:43:14;92166.91;;;8.32;84.35
45793;BME280;31495;42.740;22.908;2023-04-26T00:44:14;92156.38;;;8.33;84.07
45793;BME280;31495;42.740;22.908;2023-04-26T00:45:13;92142.09;;;8.19;84.48
45793;BME280;31495;42.740;22.908;2023-04-26T00:46:13;92159.84;;;8.27;84.49
45793;BME280;31495;42.740;22.908;2023-04-26T00:47:12;92147.25;;;8.19;84.54
45793;BME280;31495;42.740;22.908;2023-04-26T00:48:12;92135.69;;;8.09;84.31
45793;BME280;31495;42.740;22.908;2023-04-26T00:49:15;92152.19;;;8.20;84.11
45793;BME280;31495;42.740;22.908;2023-04-26T00:50:16;92129.75;;;8.09;84.10
45793;BME280;31495;42.740;22.908;2023-04-26T00:51:16;92165.34;;;8.42;83.69
45793;BME280;31495;42.740;22.908;2023-04-26T00:52:15;92139.09;;;8.22;83.45
45793;BME280;31495;42.740;22.908;2023-04-26T00:53:15;92166.91;;;8.32;83.86
45793;BME280;31495;42.740;22.908;2023-04-26T00:54:15;92126.91;;;7.99;84.06
45793;BME280;31495;42.740;22.908;2023-04-26T00:55:15;92177.22;;;8.32;84.28
45793;BME280;31495;42.740;22.908;2023-04-26T00:56:15;92173.94;;;8.24;84.23
45793;BME280;31495;42.740;22.908;2023-04-26T00:57:14;92160.44;;;8.10;84.32
45793;BME280;31495;42.740;22.908;2023-04-26T00:58:14;92196.94;;;8.38;83.89
45793;BME280;31495;42.740;22.908;2023-04-26T00:59:13;92156.63;;;8.13;83.87
45793;BME280;31495;42.740;22.908;2023-04-26T01:00:13;92174.31;;;8.28;83.89
45793;BME280;31495;42.740;22.908;2023-04-26T01:01:14;92196.72;;;8.39;84.23
45793;BME280;31495;42.740;22.908;2023-04-26T01:02:14;92165.09;;;8.20;84.44
45793;BME280;31495;42.740;22.908;2023-04-26T01:03:14;92133.06;;;7.98;84.84
45793;BME280;31495;42.740;22.908;2023-04-26T01:04:15;92181.13;;;8.34;85.08
45793;BME280;31495;42.740;22.908;2023-04-26T01:05:16;92162.63;;;8.25;85.28
45793;BME280;31495;42.740;22.908;2023-04-26T01:06:16;92176.31;;;8.38;85.09
45793;BME280;31495;42.740;22.908;2023-04-26T01:07:16;92124.59;;;8.09;85.23
45793;BME280;31495;42.740;22.908;2023-04-26T01:08:15;92145.72;;;8.29;85.15
45793;BME280;31495;42.740;22.908;2023-04-26T01:09:19;92168.97;;;8.41;85.44
45793;BME280;31495;42.740;22.908;2023-04-26T01:10:19;92146.94;;;8.27;85.61
45793;BME280;31495;42.740;22.908;2023-04-26T01:11:19;92176.03;;;8.46;85.79
45793;BME280;31495;42.740;22.908;2023-04-26T01:12:21;92169.13;;;8.46;85.50
45793;BME280;31495;42.740;22.908;2023-04-26T01:13:22;92135.28;;;8.24;85.60
45793;BME280;31495;42.740;22.908;2023-04-26T01:14:21;92127.22;;;8.21;85.68
45793;BME280;31495;42.740;22.908;2023-04-26T01:15:21;92175.97;;;8.53;85.41
45793;BME280;31495;42.740;22.908;2023-04-26T01:16:21;92151.91;;;8.40;85.46
45793;BME280;31495;42.740;22.908;2023-04-26T01:17:22;92154.50;;;8.40;85.46
45793;BME280;31495;42.740;22.908;2023-04-26T01:18:21;92158.47;;;8.43;85.40
45793;BME280;31495;42.740;22.908;2023-04-26T01:19:21;92155.38;;;8.34;85.40
45793;BME280;31495;42.740;22.908;2023-04-26T01:20:22;92188.06;;;8.52;85.63
45793;BME280;31495;42.740;22.908;2023-04-26T01:21:23;92185.16;;;8.60;85.45
45793;BME280;31495;42.740;22.908;2023-04-26T01:22:23;92170.00;;;8.52;85.37
45793;BME280;31495;42.740;22.908;2023-04-26T01:23:22;92192.47;;;8.63;85.12
45793;BME280;31495;42.740;22.908;2023-04-26T01:24:22;92161.28;;;8.53;84.95
45793;BME280;31495;42.740;22.908;2023-04-26T01:25:21;92184.63;;;8.70;84.83
45793;BME280;31495;42.740;22.908;2023-04-26T01:26:21;92160.19;;;8.61;84.73
45793;BME280;31495;42.740;22.908;2023-04-26T01:27:21;92178.25;;;8.73;84.47
45793;BME280;31495;42.740;22.908;2023-04-26T01:28:20;92184.97;;;8.74;84.41
45793;BME280;31495;42.740;22.908;2023-04-26T01:29:21;92142.31;;;8.48;84.41
45793;BME280;31495;42.740;22.908;2023-04-26T01:30:22;92093.47;;;8.10;84.59
45793;BME280;31495;42.740;22.908;2023-04-26T01:31:22;92180.94;;;8.66;84.83
45793;BME280;31495;42.740;22.908;2023-04-26T01:32:21;92189.78;;;8.70;85.09
45793;BME280;31495;42.740;22.908;2023-04-26T01:33:20;92167.34;;;8.59;84.85
45793;BME280;31495;42.740;22.908;2023-04-26T01:34:20;92149.72;;;8.44;85.11
45793;BME280;31495;42.740;22.908;2023-04-26T01:35:20;92189.22;;;8.68;85.15
45793;BME280;31495;42.740;22.908;2023-04-26T01:36:19;92157.22;;;8.45;85.24
45793;BME280;31495;42.740;22.908;2023-04-26T01:37:19;92163.53;;;8.50;85.45
45793;BME280;31495;42.740;22.908;2023-04-26T01:38:18;92177.34;;;8.67;85.51
45793;BME280;31495;42.740;22.908;2023-04-26T01:39:18;92175.78;;;8.66;85.76
45793;BME280;31495;42.740;22.908;2023-04-26T01:40:18;92175.56;;;8.68;85.84
45793;BME280;31495;42.740;22.908;2023-04-26T01:41:17;92141.75;;;8.45;86.13
45793;BME280;31495;42.740;22.908;2023-04-26T01:42:17;92159.50;;;8.65;85.84
45793;BME280;31495;42.740;22.908;2023-04-26T01:43:16;92152.13;;;8.69;85.24
45793;BME280;31495;42.740;22.908;2023-04-26T01:44:19;92171.41;;;8.78;85.23
45793;BME280;31495;42.740;22.908;2023-04-26T01:45:18;92165.59;;;8.71;85.54
45793;BME280;31495;42.740;22.908;2023-04-26T01:46:18;92144.34;;;8.57;85.66
45793;BME280;31495;42.740;22.908;2023-04-26T01:47:17;92169.16;;;8.70;85.93
45793;BME280;31495;42.740;22.908;2023-04-26T01:48:17;92153.13;;;8.68;85.94
45793;BME280;31495;42.740;22.908;2023-04-26T01:49:16;92149.66;;;8.62;86.08
45793;BME280;31495;42.740;22.908;2023-04-26T01:50:16;92107.53;;;8.38;86.10
45793;BME280;31495;42.740;22.908;2023-04-26T01:51:15;92085.53;;;8.24;86.00
45793;BME280;31495;42.740;22.908;2023-04-26T01:52:14;92145.50;;;8.73;85.77
45793;BME280;31495;42.740;22.908;2023-04-26T01:53:14;92115.31;;;8.50;85.85
45793;BME280;31495;42.740;22.908;2023-04-26T01:54:14;92143.72;;;8.74;85.94
45793;BME280;31495;42.740;22.908;2023-04-26T01:55:14;92120.72;;;8.60;85.75
45793;BME280;31495;42.740;22.908;2023-04-26T01:56:13;92139.78;;;8.71;85.61
45793;BME280;31495;42.740;22.908;2023-04-26T01:57:12;92117.00;;;8.56;85.14
45793;BME280;31495;42.740;22.908;2023-04-26T01:58:12;92084.34;;;8.38;84.91
45793;BME280;31495;42.740;22.908;2023-04-26T01:59:11;92144.41;;;8.69;85.41
45793;BME280;31495;42.740;22.908;2023-04-26T02:00:11;92138.31;;;8.63;86.11
45793;BME280;31495;42.740;22.908;2023-04-26T02:01:11;92101.03;;;8.36;86.11
45793;BME280;31495;42.740;22.908;2023-04-26T02:02:10;92111.16;;;8.49;86.26
45793;BME280;31495;42.740;22.908;2023-04-26T02:03:10;92125.09;;;8.60;85.93
45793;BME280;31495;42.740;22.908;2023-04-26T02:04:10;92133.50;;;8.67;85.87
45793;BME280;31495;42.740;22.908;2023-04-26T02:05:09;92131.34;;;8.64;86.07
45793;BME280;31495;42.740;22.908;2023-04-26T02:06:09;92109.69;;;8.41;86.50
45793;BME280;31495;42.740;22.908;2023-04-26T02:07:09;92088.78;;;8.31;86.64
45793;BME280;31495;42.740;22.908;2023-04-26T02:08:08;92129.25;;;8.61;86.70
45793;BME280;31495;42.740;22.908;2023-04-26T02:09:08;92094.09;;;8.36;86.77
45793;BME280;31495;42.740;22.908;2023-04-26T02:10:08;92107.47;;;8.45;86.74
45793;BME280;31495;42.740;22.908;2023-04-26T02:11:07;92131.25;;;8.59;86.54
45793;BME280;31495;42.740;22.908;2023-04-26T02:12:06;92137.53;;;8.63;86.64
45793;BME280;31495;42.740;22.908;2023-04-26T02:13:07;92140.47;;;8.67;86.28
45793;BME280;31495;42.740;22.908;2023-04-26T02:14:07;92131.13;;;8.65;85.88
45793;BME280;31495;42.740;22.908;2023-04-26T02:15:07;92134.84;;;8.58;85.72
45793;BME280;31495;42.740;22.908;2023-04-26T02:16:06;92115.09;;;8.52;85.64
45793;BME280;31495;42.740;22.908;2023-04-26T02:17:06;92132.59;;;8.61;85.34
45793;BME280;31495;42.740;22.908;2023-04-26T02:18:07;92132.28;;;8.70;84.98
45793;BME280;31495;42.740;22.908;2023-04-26T02:19:07;92127.56;;;8.67;84.90
45793;BME280;31495;42.740;22.908;2023-04-26T02:20:09;92083.78;;;8.36;85.00
45793;BME280;31495;42.740;22.908;2023-04-26T02:21:10;92141.13;;;8.62;85.38
45793;BME280;31495;42.740;22.908;2023-04-26T02:22:10;92144.25;;;8.64;85.34
45793;BME280;31495;42.740;22.908;2023-04-26T02:23:10;92112.19;;;8.48;85.66
45793;BME280;31495;42.740;22.908;2023-04-26T02:24:10;92113.50;;;8.51;85.50
45793;BME280;31495;42.740;22.908;2023-04-26T02:25:09;92136.06;;;8.67;85.54
45793;BME280;31495;42.740;22.908;2023-04-26T02:26:09;92109.59;;;8.48;85.47
45793;BME280;31495;42.740;22.908;2023-04-26T02:27:10;92139.25;;;8.69;85.30
45793;BME280;31495;42.740;22.908;2023-04-26T02:28:10;92129.81;;;8.63;85.26
45793;BME280;31495;42.740;22.908;2023-04-26T02:29:09;92130.03;;;8.61;85.28
45793;BME280;31495;42.740;22.908;2023-04-26T02:30:09;92146.72;;;8.59;85.59
45793;BME280;31495;42.740;22.908;2023-04-26T02:31:09;92138.41;;;8.57;85.82
45793;BME280;31495;42.740;22.908;2023-04-26T02:32:09;92142.34;;;8.59;85.51
45793;BME280;31495;42.740;22.908;2023-04-26T02:33:09;92147.03;;;8.51;85.78
45793;BME280;31495;42.740;22.908;2023-04-26T02:34:08;92144.88;;;8.48;85.97
45793;BME280;31495;42.740;22.908;2023-04-26T02:35:08;92127.13;;;8.39;85.98
45793;BME280;31495;42.740;22.908;2023-04-26T02:36:08;92107.38;;;8.21;86.19
45793;BME280;31495;42.740;22.908;2023-04-26T02:37:07;92101.44;;;8.21;86.43
45793;BME280;31495;42.740;22.908;2023-04-26T02:38:07;92143.13;;;8.48;86.44
45793;BME280;31495;42.740;22.908;2023-04-26T02:39:07;92142.09;;;8.49;86.32
45793;BME280;31495;42.740;22.908;2023-04-26T02:40:07;92131.72;;;8.37;86.28
45793;BME280;31495;42.740;22.908;2023-04-26T02:41:08;92139.72;;;8.48;86.19
45793;BME280;31495;42.740;22.908;2023-04-26T02:42:09;92136.84;;;8.56;85.75
45793;BME280;31495;42.740;22.908;2023-04-26T02:43:09;92096.44;;;8.38;85.33
45793;BME280;31495;42.740;22.908;2023-04-26T02:44:08;92093.63;;;8.39;85.25
45793;BME280;31495;42.740;22.908;2023-04-26T02:45:08;92079.28;;;8.32;85.43
45793;BME280;31495;42.740;22.908;2023-04-26T02:46:07;92121.38;;;8.56;85.65
45793;BME280;31495;42.740;22.908;2023-04-26T02:47:07;92115.06;;;8.40;85.93
45793;BME280;31495;42.740;22.908;2023-04-26T02:48:07;92113.00;;;8.30;86.55
45793;BME280;31495;42.740;22.908;2023-04-26T02:49:07;92096.16;;;8.16;86.63
45793;BME280;31495;42.740;22.908;2023-04-26T02:50:08;92117.50;;;8.35;86.90
45793;BME280;31495;42.740;22.908;2023-04-26T02:51:07;92096.94;;;8.16;87.12
45793;BME280;31495;42.740;22.908;2023-04-26T02:52:07;92068.00;;;8.02;87.44
45793;BME280;31495;42.740;22.908;2023-04-26T02:53:06;92071.16;;;8.04;87.71
45793;BME280;31495;42.740;22.908;2023-04-26T02:54:06;92095.81;;;8.12;87.70
45793;BME280;31495;42.740;22.908;2023-04-26T02:55:06;92086.72;;;8.09;88.02
45793;BME280;31495;42.740;22.908;2023-04-26T02:56:05;92103.78;;;8.22;88.10
45793;BME280;31495;42.740;22.908;2023-04-26T02:57:05;92055.63;;;7.81;88.19
45793;BME280;31495;42.740;22.908;2023-04-26T02:58:06;92105.81;;;8.20;88.63
45793;BME280;31495;42.740;22.908;2023-04-26T02:59:06;92106.81;;;8.19;88.84
45793;BME280;31495;42.740;22.908;2023-04-26T03:00:06;92078.31;;;8.02;88.77
45793;BME280;31495;42.740;22.908;2023-04-26T03:01:06;92107.53;;;8.26;88.85
45793;BME280;31495;42.740;22.908;2023-04-26T03:02:06;92109.63;;;8.29;88.50
45793;BME280;31495;42.740;22.908;2023-04-26T03:03:06;92113.34;;;8.34;88.11
45793;BME280;31495;42.740;22.908;2023-04-26T03:04:06;92051.19;;;8.00;87.76
45793;BME280;31495;42.740;22.908;2023-04-26T03:05:05;92088.69;;;8.26;87.08
45793;BME280;31495;42.740;22.908;2023-04-26T03:06:05;92071.88;;;8.23;87.25
45793;BME280;31495;42.740;22.908;2023-04-26T03:07:05;92072.66;;;8.24;87.26
45793;BME280;31495;42.740;22.908;2023-04-26T03:08:05;92079.94;;;8.27;87.02
45793;BME280;31495;42.740;22.908;2023-04-26T03:09:05;92094.81;;;8.43;86.53
45793;BME280;31495;42.740;22.908;2023-04-26T03:10:05;92073.00;;;8.27;86.28
45793;BME280;31495;42.740;22.908;2023-04-26T03:11:04;92077.72;;;8.31;85.97
45793;BME280;31495;42.740;22.908;2023-04-26T03:12:05;92101.44;;;8.51;86.07
45793;BME280;31495;42.740;22.908;2023-04-26T03:13:05;92085.81;;;8.46;85.92
45793;BME280;31495;42.740;22.908;2023-04-26T03:14:05;92103.88;;;8.46;85.67
45793;BME280;31495;42.740;22.908;2023-04-26T03:15:05;92058.06;;;8.18;85.81
45793;BME280;31495;42.740;22.908;2023-04-26T03:16:05;92078.25;;;8.21;86.46
45793;BME280;31495;42.740;22.908;2023-04-26T03:17:04;92106.19;;;8.36;86.47
45793;BME280;31495;42.740;22.908;2023-04-26T03:18:04;92108.75;;;8.36;86.75
45793;BME280;31495;42.740;22.908;2023-04-26T03:19:04;92108.97;;;8.34;86.40
45793;BME280;31495;42.740;22.908;2023-04-26T03:20:04;92072.28;;;8.08;86.12
45793;BME280;31495;42.740;22.908;2023-04-26T03:21:06;92081.03;;;8.07;86.17
45793;BME280;31495;42.740;22.908;2023-04-26T03:22:06;92091.22;;;8.14;86.18
45793;BME280;31495;42.740;22.908;2023-04-26T03:23:05;92066.88;;;7.98;86.17
45793;BME280;31495;42.740;22.908;2023-04-26T03:24:05;92102.91;;;8.28;86.48
45793;BME280;31495;42.740;22.908;2023-04-26T03:25:06;92102.16;;;8.28;86.12
45793;BME280;31495;42.740;22.908;2023-04-26T03:26:06;92114.09;;;8.22;85.52
45793;BME280;31495;42.740;22.908;2023-04-26T03:27:05;92113.53;;;8.20;85.78
45793;BME280;31495;42.740;22.908;2023-04-26T03:28:05;92079.41;;;7.95;85.89
45793;BME280;31495;42.740;22.908;2023-04-26T03:29:04;92117.69;;;8.21;86.12
45793;BME280;31495;42.740;22.908;2023-04-26T03:30:05;92118.47;;;8.22;86.28
45793;BME280;31495;42.740;22.908;2023-04-26T03:31:05;92102.28;;;8.03;85.96
45793;BME280;31495;42.740;22.908;2023-04-26T03:32:05;92063.25;;;7.76;86.11
45793;BME280;31495;42.740;22.908;2023-04-26T03:33:05;92074.78;;;7.85;86.17
45793;BME280;31495;42.740;22.908;2023-04-26T03:34:05;92113.59;;;8.02;86.72
45793;BME280;31495;42.740;22.908;2023-04-26T03:35:06;92097.09;;;7.91;86.85
45793;BME280;31495;42.740;22.908;2023-04-26T03:36:06;92102.81;;;7.93;86.88
45793;BME280;31495;42.740;22.908;2023-04-26T03:37:05;92099.25;;;7.94;87.01
45793;BME280;31495;42.740;22.908;2023-04-26T03:38:05;92105.38;;;7.93;87.18
45793;BME280;31495;42.740;22.908;2023-04-26T03:39:04;92116.97;;;8.02;86.88
45793;BME280;31495;42.740;22.908;2023-04-26T03:40:08;92109.88;;;7.98;86.87
45793;BME280;31495;42.740;22.908;2023-04-26T03:41:07;92117.75;;;8.03;86.98
45793;BME280;31495;42.740;22.908;2023-04-26T03:42:07;92137.59;;;8.14;86.77
45793;BME280;31495;42.740;22.908;2023-04-26T03:43:06;92091.69;;;7.81;87.15
45793;BME280;31495;42.740;22.908;2023-04-26T03:44:06;92134.56;;;8.05;87.26
45793;BME280;31495;42.740;22.908;2023-04-26T03:45:06;92124.13;;;8.00;87.77
45793;BME280;31495;42.740;22.908;2023-04-26T03:46:06;92145.47;;;8.19;87.19
45793;BME280;31495;42.740;22.908;2023-04-26T03:47:05;92149.97;;;8.24;86.99
45793;BME280;31495;42.740;22.908;2023-04-26T03:48:05;92088.59;;;7.90;86.39
45793;BME280;31495;42.740;22.908;2023-04-26T03:49:04;92140.31;;;8.19;86.15
45793;BME280;31495;42.740;22.908;2023-04-26T03:50:06;92131.88;;;8.12;86.02
45793;BME280;31495;42.740;22.908;2023-04-26T03:51:06;92134.59;;;8.17;86.13
45793;BME280;31495;42.740;22.908;2023-04-26T03:52:06;92103.16;;;7.97;86.21
45793;BME280;31495;42.740;22.908;2023-04-26T03:53:05;92150.31;;;8.27;86.17
45793;BME280;31495;42.740;22.908;2023-04-26T03:54:05;92126.88;;;8.17;85.97
45793;BME280;31495;42.740;22.908;2023-04-26T03:55:05;92132.34;;;8.21;85.58
45793;BME280;31495;42.740;22.908;2023-04-26T03:56:07;92134.72;;;8.22;86.09
45793;BME280;31495;42.740;22.908;2023-04-26T03:57:06;92145.16;;;8.27;86.04
45793;BME280;31495;42.740;22.908;2023-04-26T03:58:06;92132.66;;;8.13;86.46
45793;BME280;31495;42.740;22.908;2023-04-26T03:59:06;92146.25;;;8.20;86.46
45793;BME280;31495;42.740;22.908;2023-04-26T04:00:08;92144.47;;;8.20;86.56
45793;BME280;31495;42.740;22.908;2023-04-26T04:01:12;92130.06;;;8.01;87.01
45793;BME280;31495;42.740;22.908;2023-04-26T04:02:11;92144.91;;;8.17;87.19
45793;BME280;31495;42.740;22.908;2023-04-26T04:03:11;92105.59;;;7.91;86.83
45793;BME280;31495;42.740;22.908;2023-04-26T04:04:10;92131.56;;;8.08;86.81
45793;BME280;31495;42.740;22.908;2023-04-26T04:05:10;92145.25;;;8.21;86.30
45793;BME280;31495;42.740;22.908;2023-04-26T04:06:09;92138.16;;;8.16;86.18
45793;BME280;31495;42.740;22.908;2023-04-26T04:07:09;92143.00;;;8.24;86.23
45793;BME280;31495;42.740;22.908;2023-04-26T04:08:09;92136.63;;;8.15;85.94
45793;BME280;31495;42.740;22.908;2023-04-26T04:09:09;92136.19;;;8.18;85.64
45793;BME280;31495;42.740;22.908;2023-04-26T04:10:08;92141.25;;;8.25;85.87
45793;BME280;31495;42.740;22.908;2023-04-26T04:11:08;92131.16;;;8.23;85.52
45793;BME280;31495;42.740;22.908;2023-04-26T04:12:08;92157.59;;;8.31;84.95
45793;BME280;31495;42.740;22.908;2023-04-26T04:13:07;92143.59;;;8.26;84.86
45793;BME280;31495;42.740;22.908;2023-04-26T04:14:07;92142.44;;;8.22;84.53
45793;BME280;31495;42.740;22.908;2023-04-26T04:15:07;92157.38;;;8.32;84.50
45793;BME280;31495;42.740;22.908;2023-04-26T04:16:07;92143.44;;;8.21;84.90
45793;BME280;31495;42.740;22.908;2023-04-26T04:17:08;92131.88;;;8.12;85.39
45793;BME280;31495;42.740;22.908;2023-04-26T04:18:08;92145.59;;;8.24;85.19
45793;BME280;31495;42.740;22.908;2023-04-26T04:19:07;92154.25;;;8.30;85.23
45793;BME280;31495;42.740;22.908;2023-04-26T04:20:07;92125.38;;;8.09;84.97
45793;BME280;31495;42.740;22.908;2023-04-26T04:21:07;92117.19;;;8.01;85.28
45793;BME280;31495;42.740;22.908;2023-04-26T04:22:06;92148.75;;;8.26;85.81
45793;BME280;31495;42.740;22.908;2023-04-26T04:23:06;92148.28;;;8.29;85.72
45793;BME280;31495;42.740;22.908;2023-04-26T04:24:06;92135.38;;;8.18;85.46
45793;BME280;31495;42.740;22.908;2023-04-26T04:25:06;92164.59;;;8.42;85.09
45793;BME280;31495;42.740;22.908;2023-04-26T04:26:06;92119.81;;;8.24;84.85
45793;BME280;31495;42.740;22.908;2023-04-26T04:27:05;92150.03;;;8.48;85.02
45793;BME280;31495;42.740;22.908;2023-04-26T04:28:05;92163.44;;;8.56;85.19
45793;BME280;31495;42.740;22.908;2023-04-26T04:29:05;92161.41;;;8.58;85.45
45793;BME280;31495;42.740;22.908;2023-04-26T04:30:07;92139.28;;;8.51;85.25
45793;BME280;31495;42.740;22.908;2023-04-26T04:31:07;92145.38;;;8.56;85.39
45793;BME280;31495;42.740;22.908;2023-04-26T04:32:08;92130.44;;;8.46;85.50
45793;BME280;31495;42.740;22.908;2023-04-26T04:33:07;92152.91;;;8.70;85.12
45793;BME280;31495;42.740;22.908;2023-04-26T04:34:06;92125.06;;;8.48;85.01
45793;BME280;31495;42.740;22.908;2023-04-26T04:35:07;92165.91;;;8.75;84.64
45793;BME280;31495;42.740;22.908;2023-04-26T04:36:08;92151.31;;;8.69;83.73
45793;BME280;31495;42.740;22.908;2023-04-26T04:37:08;92164.81;;;8.82;83.71
45793;BME280;31495;42.740;22.908;2023-04-26T04:38:08;92165.47;;;8.66;83.17
45793;BME280;31495;42.740;22.908;2023-04-26T04:39:07;92174.06;;;8.60;83.18
45793;BME280;31495;42.740;22.908;2023-04-26T04:40:14;92161.06;;;8.55;83.31
45793;BME280;31495;42.740;22.908;2023-04-26T04:41:14;92120.72;;;8.18;83.35
45793;BME280;31495;42.740;22.908;2023-04-26T04:42:15;92167.53;;;8.45;83.56
45793;BME280;31495;42.740;22.908;2023-04-26T04:43:14;92174.06;;;8.48;83.99
45793;BME280;31495;42.740;22.908;2023-04-26T04:44:15;92172.75;;;8.39;84.12
45793;BME280;31495;42.740;22.908;2023-04-26T04:45:14;92176.03;;;8.46;84.21
45793;BME280;31495;42.740;22.908;2023-04-26T04:46:14;92159.31;;;8.37;84.14
45793;BME280;31495;42.740;22.908;2023-04-26T04:47:13;92175.97;;;8.53;84.29
45793;BME280;31495;42.740;22.908;2023-04-26T04:48:13;92179.00;;;8.61;83.98
45793;BME280;31495;42.740;22.908;2023-04-26T04:49:12;92169.13;;;8.46;84.10
45793;BME280;31495;42.740;22.908;2023-04-26T04:50:13;92180.34;;;8.64;84.27
45793;BME280;31495;42.740;22.908;2023-04-26T04:51:12;92173.75;;;8.56;83.92
45793;BME280;31495;42.740;22.908;2023-04-26T04:52:12;92188.41;;;8.56;84.50
45793;BME280;31495;42.740;22.908;2023-04-26T04:53:14;92157.25;;;8.27;84.47
45793;BME280;31495;42.740;22.908;2023-04-26T04:54:15;92178.78;;;8.51;84.37
45793;BME280;31495;42.740;22.908;2023-04-26T04:55:15;92156.84;;;8.42;84.22
45793;BME280;31495;42.740;22.908;2023-04-26T04:56:15;92146.72;;;8.28;83.58
45793;BME280;31495;42.740;22.908;2023-04-26T04:57:16;92151.00;;;8.35;83.39
45793;BME280;31495;42.740;22.908;2023-04-26T04:58:17;92146.19;;;8.38;83.83
45793;BME280;31495;42.740;22.908;2023-04-26T04:59:16;92082.00;;;8.06;83.61
45793;BME280;31495;42.740;22.908;2023-04-26T05:00:17;92167.00;;;8.55;83.76
45793;BME280;31495;42.740;22.908;2023-04-26T05:01:16;92175.91;;;8.71;83.54
45793;BME280;31495;42.740;22.908;2023-04-26T05:02:16;92168.69;;;8.61;83.28
45793;BME280;31495;42.740;22.908;2023-04-26T05:03:15;92180.13;;;8.65;83.11
45793;BME280;31495;42.740;22.908;2023-04-26T05:04:15;92175.97;;;8.53;83.21
45793;BME280;31495;42.740;22.908;2023-04-26T05:05:15;92160.03;;;8.44;82.90
45793;BME280;31495;42.740;22.908;2023-04-26T05:06:14;92153.31;;;8.43;82.92
45793;BME280;31495;42.740;22.908;2023-04-26T05:07:14;92161.84;;;8.55;83.09
45793;BME280;31495;42.740;22.908;2023-04-26T05:08:15;92155.94;;;8.67;82.69
45793;BME280;31495;42.740;22.908;2023-04-26T05:09:14;92163.91;;;8.77;82.82
45793;BME280;31495;42.740;22.908;2023-04-26T05:10:14;92181.41;;;8.87;82.67
45793;BME280;31495;42.740;22.908;2023-04-26T05:11:14;92161.91;;;8.79;82.77
45793;BME280;31495;42.740;22.908;2023-04-26T05:12:13;92161.00;;;8.85;82.61
45793;BME280;31495;42.740;22.908;2023-04-26T05:13:13;92174.25;;;8.89;83.01
45793;BME280;31495;42.740;22.908;2023-04-26T05:14:12;92157.75;;;8.78;82.96
45793;BME280;31495;42.740;22.908;2023-04-26T05:15:12;92181.06;;;8.83;82.45
45793;BME280;31495;42.740;22.908;2023-04-26T05:16:12;92177.50;;;8.84;82.41
45793;BME280;31495;42.740;22.908;2023-04-26T05:17:11;92129.91;;;8.68;81.98